Time;durP1;ratioP1;P1;durP2;ratioP2;P2;SDS_P1;SDS_P2;PMS_P1;PMS_P2;Temp;Humidity;BMP_temperature;BMP_pressure;BME280_temperature;BME280_humidity;BME280_pressure;Samples;Min_cycle;Max_cycle;Signal;HPM_P1;HPM_P2
2022/09/07 00:01:44;;;;;;;5.32;1.48;;;26.90;47.50;;;;;;6287264;28;20039;-81
2022/09/07 00:04:45;;;;;;;7.25;1.35;;;26.90;47.70;;;;;;6256818;28;20076;-81
2022/09/07 00:07:46;;;;;;;2.78;1.17;;;26.80;47.80;;;;;;6252107;28;20178;-81
2022/09/07 00:10:58;;;;;;;4.20;1.33;;;26.80;47.90;;;;;;6267270;28;20036;-81
2022/09/07 00:14:00;;;;;;;8.32;1.23;;;26.80;48.00;;;;;;6253403;28;20045;-83
2022/09/07 00:17:02;;;;;;;3.25;1.10;;;26.80;47.90;;;;;;6244110;28;20061;-81
2022/09/07 00:20:06;;;;;;;3.55;1.15;;;26.90;48.00;;;;;;6253811;28;20130;-82
2022/09/07 00:23:07;;;;;;;11.38;1.60;;;26.90;48.00;;;;;;6262383;28;20049;-82
2022/09/07 00:26:15;;;;;;;5.53;1.30;;;26.90;48.00;;;;;;6259446;28;20061;-82
2022/09/07 00:29:15;;;;;;;3.15;1.38;;;26.90;47.90;;;;;;6283848;28;20048;-81
2022/09/07 00:32:17;;;;;;;8.73;1.38;;;26.90;47.90;;;;;;6272999;28;20034;-81
2022/09/07 00:35:18;;;;;;;5.35;1.00;;;27.00;47.90;;;;;;6258904;28;20036;-83
2022/09/07 00:38:19;;;;;;;3.33;1.02;;;27.00;47.80;;;;;;6275950;28;20362;-82
2022/09/07 00:41:21;;;;;;;6.88;1.20;;;27.00;47.70;;;;;;6253408;28;20057;-82
2022/09/07 00:44:41;;;;;;;8.75;2.00;;;27.10;47.70;;;;;;6265972;28;20480;-82
2022/09/07 00:48:16;;;;;;;5.20;1.08;;;27.10;47.60;;;;;;6253210;28;20404;-82
2022/09/07 00:51:24;;;;;;;4.07;1.27;;;27.10;47.60;;;;;;6232331;28;20041;-82
2022/09/07 00:54:34;;;;;;;4.25;1.15;;;27.10;47.40;;;;;;6232891;28;20038;-82
2022/09/07 00:57:37;;;;;;;2.25;1.08;;;27.10;47.40;;;;;;6259864;28;20044;-83
2022/09/07 01:00:40;;;;;;;3.60;1.48;;;27.10;47.30;;;;;;6260484;28;20037;-81
2022/09/07 01:03:45;;;;;;;5.18;1.40;;;27.10;47.30;;;;;;6269393;28;20040;-82
2022/09/07 01:06:47;;;;;;;7.30;1.30;;;27.10;47.40;;;;;;6268697;28;20591;-81
2022/09/07 01:09:49;;;;;;;4.00;1.02;;;27.10;47.50;;;;;;6286898;28;20042;-81
2022/09/07 01:12:50;;;;;;;7.20;1.15;;;27.00;47.50;;;;;;6272380;28;20242;-82
2022/09/07 01:16:09;;;;;;;2.95;0.90;;;27.00;47.70;;;;;;6271821;28;20048;-81
2022/09/07 01:19:15;;;;;;;;;;;27.00;47.80;;;;;;6269057;28;20036;-81
2022/09/07 01:23:00;;;;;;;4.40;1.00;;;27.00;47.80;;;;;;6263960;28;20047;-82
2022/09/07 01:26:20;;;;;;;5.85;1.27;;;27.00;47.90;;;;;;6142890;28;20045;-81
2022/09/07 01:29:38;;;;;;;13.50;1.40;;;27.00;47.90;;;;;;6190733;28;20145;-82
2022/09/07 01:33:00;;;;;;;9.43;1.70;;;26.90;48.10;;;;;;6169701;28;20026;-81
2022/09/07 01:36:22;;;;;;;6.97;1.70;;;26.80;48.40;;;;;;6183938;28;20157;-82
2022/09/07 01:39:31;;;;;;;4.18;1.27;;;26.70;48.70;;;;;;6186941;28;20057;-81
2022/09/07 01:42:41;;;;;;;8.90;1.65;;;26.70;49.00;;;;;;6169794;28;20177;-81
2022/09/07 01:45:42;;;;;;;5.45;1.98;;;26.60;49.40;;;;;;6169309;28;20482;-81
2022/09/07 01:48:47;;;;;;;8.25;1.88;;;26.50;49.70;;;;;;6155755;28;20077;-81
2022/09/07 01:51:54;;;;;;;7.50;1.60;;;26.40;49.90;;;;;;6183047;28;20034;-81
2022/09/07 01:55:03;;;;;;;14.00;2.72;;;26.40;50.10;;;;;;6171192;28;20092;-81
2022/09/07 01:58:17;;;;;;;12.07;2.45;;;26.30;50.30;;;;;;6157218;28;20161;-81
2022/09/07 02:01:24;;;;;;;13.90;3.63;;;26.20;50.50;;;;;;6235932;28;20044;-82
2022/09/07 02:04:33;;;;;;;23.08;4.35;;;26.10;50.60;;;;;;6256167;28;20553;-81
2022/09/07 02:07:50;;;;;;;24.45;3.85;;;26.00;50.80;;;;;;6274736;28;20026;-80
2022/09/07 02:10:58;;;;;;;7.75;2.50;;;26.00;51.00;;;;;;6241994;28;20034;-81
2022/09/07 02:14:14;;;;;;;8.02;2.50;;;26.00;51.20;;;;;;6259773;28;20047;-81
2022/09/07 02:17:15;;;;;;;5.28;2.25;;;26.00;51.20;;;;;;6250371;28;20049;-81
2022/09/07 02:20:20;;;;;;;12.95;2.70;;;26.10;51.20;;;;;;6251093;28;20037;-82
2022/09/07 02:23:26;;;;;;;10.55;2.40;;;26.10;51.20;;;;;;6271701;28;20041;-82
2022/09/07 02:26:28;;;;;;;9.73;1.92;;;26.10;51.20;;;;;;6280947;28;20042;-82
2022/09/07 02:29:29;;;;;;;5.03;2.13;;;26.20;51.20;;;;;;6292975;28;20050;-82
2022/09/07 02:32:30;;;;;;;6.18;1.67;;;26.20;51.10;;;;;;6287156;28;20033;-82
2022/09/07 02:35:32;;;;;;;9.80;1.70;;;26.20;51.00;;;;;;6288771;28;20355;-82
2022/09/07 02:38:33;;;;;;;5.45;1.55;;;26.20;50.90;;;;;;6290228;28;20036;-83
2022/09/07 02:41:36;;;;;;;2.80;1.10;;;26.20;50.80;;;;;;6268283;28;20757;-81
2022/09/07 02:44:39;;;;;;;2.22;1.13;;;26.20;50.60;;;;;;6259379;28;20117;-82
2022/09/07 02:48:29;;;;;;;7.45;1.55;;;26.30;50.60;;;;;;6269721;28;20033;-82
2022/09/07 02:51:54;;;;;;;5.35;1.05;;;26.30;50.90;;;;;;6253940;28;20033;-82
2022/09/07 02:55:30;;;;;;;2.45;0.85;;;26.20;51.00;;;;;;6253361;28;20033;-81
2022/09/07 02:58:45;;;;;;;3.38;1.35;;;26.20;51.20;;;;;;6258380;28;20056;-82
2022/09/07 03:01:48;;;;;;;9.07;1.40;;;26.20;51.10;;;;;;6259331;28;20028;-82
2022/09/07 03:05:13;;;;;;;1.52;1.00;;;26.20;51.20;;;;;;6250558;28;20167;-81
2022/09/07 03:08:25;;;;;;;2.85;1.35;;;26.20;51.40;;;;;;6277793;28;20037;-81
2022/09/07 03:11:28;;;;;;;8.38;1.08;;;26.20;51.50;;;;;;6269013;28;20036;-81
2022/09/07 03:14:32;;;;;;;4.63;1.40;;;26.20;51.40;;;;;;6232767;28;20044;-81
2022/09/07 03:17:33;;;;;;;3.95;1.13;;;26.10;52.00;;;;;;6253305;28;20071;-81
2022/09/07 03:20:33;;;;;;;7.57;1.40;;;26.10;51.80;;;;;;6269562;28;20056;-81
2022/09/07 03:23:36;;;;;;;4.18;1.50;;;26.20;52.10;;;;;;6237910;28;20051;-82
2022/09/07 03:26:41;;;;;;;2.45;1.13;;;26.20;52.20;;;;;;6275146;28;20037;-82
2022/09/07 03:29:42;;;;;;;4.95;1.45;;;26.20;52.40;;;;;;6264997;28;20090;-82
2022/09/07 03:32:43;;;;;;;3.63;1.25;;;26.20;52.60;;;;;;6259084;28;20059;-82
2022/09/07 03:35:46;;;;;;;2.60;1.35;;;26.20;52.70;;;;;;6257798;28;20482;-82
2022/09/07 03:38:46;;;;;;;4.00;1.30;;;26.10;52.80;;;;;;6274710;28;20532;-82
2022/09/07 03:41:47;;;;;;;8.40;1.10;;;26.00;52.70;;;;;;6268210;28;20033;-82
2022/09/07 03:44:49;;;;;;;5.38;1.77;;;26.00;52.70;;;;;;6271022;28;20033;-82
2022/09/07 03:47:50;;;;;;;2.85;1.15;;;25.90;52.50;;;;;;6261410;28;20043;-82
2022/09/07 03:51:05;;;;;;;6.75;1.67;;;25.80;52.50;;;;;;6246137;28;20457;-81
2022/09/07 03:54:06;;;;;;;4.32;1.10;;;25.70;52.70;;;;;;6258447;28;20041;-82
2022/09/07 03:57:07;;;;;;;2.17;1.10;;;25.70;52.90;;;;;;6258260;28;20410;-82
2022/09/07 04:00:09;;;;;;;5.57;1.17;;;25.60;53.10;;;;;;6252027;28;20041;-82
2022/09/07 04:03:16;;;;;;;13.75;1.60;;;25.60;53.30;;;;;;6263111;28;20314;-82
2022/09/07 04:06:18;;;;;;;3.20;1.35;;;25.50;53.50;;;;;;6247373;28;20469;-81
2022/09/07 04:09:19;;;;;;;5.22;1.38;;;25.50;53.60;;;;;;6233813;28;20462;-80
2022/09/07 04:12:20;;;;;;;2.15;1.35;;;25.40;53.70;;;;;;6249482;28;20047;-80
2022/09/07 04:15:20;;;;;;;7.00;1.25;;;25.30;53.90;;;;;;6251081;28;20051;-82
2022/09/07 04:18:23;;;;;;;3.10;1.10;;;25.30;54.20;;;;;;6261068;28;20377;-81
2022/09/07 04:21:29;;;;;;;4.93;1.23;;;25.20;54.40;;;;;;6267942;28;20049;-81
2022/09/07 04:24:30;;;;;;;3.10;1.23;;;25.20;54.60;;;;;;6257302;28;20029;-81
2022/09/07 04:27:31;;;;;;;5.00;1.45;;;25.10;54.70;;;;;;6256374;28;20037;-81
2022/09/07 04:30:34;;;;;;;5.00;1.08;;;25.10;54.80;;;;;;6268134;28;20067;-81
2022/09/07 04:33:35;;;;;;;7.78;1.60;;;25.10;54.90;;;;;;6278957;28;20461;-82
2022/09/07 04:36:36;;;;;;;1.77;0.93;;;25.00;54.90;;;;;;6267979;28;20125;-81
2022/09/07 04:39:38;;;;;;;9.68;1.40;;;25.00;55.10;;;;;;6267060;28;20029;-83
2022/09/07 04:42:40;;;;;;;3.10;1.67;;;24.90;55.20;;;;;;6281925;28;20033;-82
2022/09/07 04:45:41;;;;;;;7.20;1.42;;;24.90;55.20;;;;;;6262688;28;20124;-82
2022/09/07 04:48:42;;;;;;;10.00;1.60;;;24.90;55.20;;;;;;6271329;28;20041;-82
2022/09/07 04:51:43;;;;;;;6.70;1.17;;;24.90;55.20;;;;;;6276546;28;20068;-81
2022/09/07 04:54:48;;;;;;;6.32;1.45;;;24.90;55.30;;;;;;6260198;28;20037;-81
2022/09/07 04:57:50;;;;;;;5.85;1.77;;;24.80;55.20;;;;;;6254008;28;20037;-83
2022/09/07 05:00:51;;;;;;;4.60;1.40;;;24.80;55.30;;;;;;6260084;28;20036;-82
2022/09/07 05:03:52;;;;;;;4.45;1.10;;;24.80;55.20;;;;;;6257834;28;20029;-81
2022/09/07 05:06:53;;;;;;;6.70;1.38;;;24.80;55.20;;;;;;6260432;28;20053;-81
2022/09/07 05:09:55;;;;;;;9.35;1.80;;;24.80;55.30;;;;;;6295486;28;20047;-83
2022/09/07 05:12:56;;;;;;;16.25;1.60;;;24.80;55.40;;;;;;6269450;28;21150;-82
2022/09/07 05:15:58;;;;;;;1.85;1.33;;;24.80;55.40;;;;;;6267784;28;20033;-82
2022/09/07 05:19:02;;;;;;;5.60;1.60;;;24.70;55.40;;;;;;6263546;28;20082;-81
2022/09/07 05:22:03;;;;;;;11.52;1.75;;;24.70;55.50;;;;;;6254050;28;20037;-82
2022/09/07 05:25:04;;;;;;;8.18;1.70;;;24.70;55.60;;;;;;6252634;28;20140;-82
2022/09/07 05:28:05;;;;;;;15.88;2.05;;;24.70;55.70;;;;;;6281965;28;20036;-82
2022/09/07 05:31:11;;;;;;;7.95;1.77;;;24.70;55.80;;;;;;6291614;28;20093;-82
2022/09/07 05:34:12;;;;;;;4.53;1.52;;;24.70;55.80;;;;;;6269889;28;20029;-81
2022/09/07 05:37:13;;;;;;;2.08;1.20;;;24.70;55.90;;;;;;6255505;28;20048;-82
2022/09/07 05:40:14;;;;;;;3.28;1.33;;;24.70;56.00;;;;;;6255010;28;20407;-82
2022/09/07 05:43:16;;;;;;;6.00;1.70;;;24.60;56.00;;;;;;6276513;28;20086;-82
2022/09/07 05:46:19;;;;;;;5.55;1.63;;;24.60;55.90;;;;;;6273872;28;20056;-81
2022/09/07 05:49:20;;;;;;;4.47;1.67;;;24.70;55.80;;;;;;6272129;28;20090;-81
2022/09/07 05:52:21;;;;;;;8.60;1.55;;;24.70;55.70;;;;;;6284017;28;20036;-81
2022/09/07 05:55:23;;;;;;;6.30;1.63;;;24.70;55.60;;;;;;6272671;28;20033;-81
2022/09/07 05:58:24;;;;;;;4.18;1.35;;;24.70;56.10;;;;;;6289034;28;20043;-81
2022/09/07 06:01:25;;;;;;;3.92;1.30;;;24.80;55.40;;;;;;6294404;28;20103;-81
2022/09/07 06:04:26;;;;;;;12.88;2.17;;;24.80;55.20;;;;;;6288706;28;20101;-81
2022/09/07 06:07:27;;;;;;;6.93;1.77;;;24.90;55.00;;;;;;6261034;28;20048;-82
2022/09/07 06:10:32;;;;;;;3.72;1.75;;;24.90;54.70;;;;;;6262310;28;20048;-82
2022/09/07 06:13:34;;;;;;;2.65;1.35;;;24.90;54.40;;;;;;6263256;28;20038;-82
2022/09/07 06:16:36;;;;;;;3.50;1.60;;;24.90;54.20;;;;;;6275086;28;20057;-82
2022/09/07 06:19:37;;;;;;;3.05;1.40;;;24.90;54.20;;;;;;6251967;28;20698;-82
2022/09/07 06:22:38;;;;;;;5.15;2.05;;;24.90;54.70;;;;;;6246911;28;20086;-82
2022/09/07 06:25:47;;;;;;;9.98;2.05;;;24.90;54.10;;;;;;6263975;28;20045;-81
2022/09/07 06:28:50;;;;;;;5.45;1.58;;;25.00;54.10;;;;;;6275722;28;20373;-81
2022/09/07 06:31:51;;;;;;;7.30;1.70;;;25.10;54.00;;;;;;6266848;28;20347;-81
2022/09/07 06:34:52;;;;;;;3.50;1.58;;;25.10;53.80;;;;;;6252031;28;20030;-80
2022/09/07 06:37:53;;;;;;;5.40;1.50;;;25.20;53.70;;;;;;6247173;28;20527;-82
2022/09/07 06:40:54;;;;;;;4.85;1.60;;;25.20;53.60;;;;;;6259100;28;20538;-82
2022/09/07 06:43:56;;;;;;;6.70;1.48;;;25.20;53.50;;;;;;6261618;28;20128;-81
2022/09/07 06:46:57;;;;;;;5.72;2.97;;;25.30;53.50;;;;;;6266517;28;20044;-82
2022/09/07 06:49:58;;;;;;;3.50;1.60;;;25.30;53.40;;;;;;6283790;28;20430;-81
2022/09/07 06:52:59;;;;;;;9.43;1.70;;;25.30;53.30;;;;;;6287119;28;20044;-82
2022/09/07 06:56:05;;;;;;;11.45;1.88;;;25.30;53.30;;;;;;6244990;28;20048;-82
2022/09/07 06:59:07;;;;;;;5.90;1.48;;;25.40;53.40;;;;;;6272454;28;20452;-81
2022/09/07 07:02:10;;;;;;;7.38;1.90;;;25.30;53.30;;;;;;6255708;28;20450;-81
2022/09/07 07:05:11;;;;;;;6.20;2.00;;;25.40;53.20;;;;;;6267690;28;20029;-82
2022/09/07 07:08:12;;;;;;;5.53;1.83;;;25.50;53.20;;;;;;6279215;28;20918;-81
2022/09/07 07:11:15;;;;;;;3.25;1.77;;;25.50;53.00;;;;;;6268987;28;20033;-81
2022/09/07 07:14:16;;;;;;;9.02;1.85;;;25.60;52.90;;;;;;6261207;28;20123;-82
2022/09/07 07:17:18;;;;;;;5.60;1.50;;;25.70;52.70;;;;;;6259399;28;20049;-83
2022/09/07 07:20:20;;;;;;;8.35;2.10;;;25.80;52.60;;;;;;6250682;28;20714;-81
2022/09/07 07:23:21;;;;;;;5.38;1.55;;;25.80;52.40;;;;;;6250095;28;20398;-83
2022/09/07 07:26:26;;;;;;;7.13;1.60;;;26.00;52.40;;;;;;6258736;28;20076;-83
2022/09/07 07:29:34;;;;;;;4.93;1.70;;;26.00;52.20;;;;;;6274659;28;20407;-82
2022/09/07 07:32:36;;;;;;;8.50;1.92;;;26.10;52.20;;;;;;6256994;28;20034;-83
2022/09/07 07:35:39;;;;;;;8.68;1.88;;;26.20;52.10;;;;;;6258928;28;20076;-82
2022/09/07 07:38:48;;;;;;;9.88;1.83;;;26.30;51.90;;;;;;6235403;28;20163;-82
2022/09/07 07:41:49;;;;;;;5.40;1.95;;;26.40;51.80;;;;;;6270523;28;20152;-81
2022/09/07 07:44:49;;;;;;;6.85;2.35;;;26.50;51.60;;;;;;6260856;28;20045;-81
2022/09/07 07:47:51;;;;;;;13.77;2.63;;;26.50;51.50;;;;;;6271635;28;20030;-81
2022/09/07 07:51:00;;;;;;;5.45;1.83;;;26.50;51.30;;;;;;6257971;28;20043;-81
2022/09/07 07:54:01;;;;;;;7.05;1.70;;;26.60;51.20;;;;;;6258679;28;20029;-82
2022/09/07 07:57:04;;;;;;;4.55;1.73;;;26.60;51.00;;;;;;6262457;28;20358;-82
2022/09/07 08:00:06;;;;;;;7.57;1.67;;;26.60;50.70;;;;;;6261425;28;20037;-82
2022/09/07 08:03:12;;;;;;;3.55;1.58;;;26.70;50.40;;;;;;6255243;28;20366;-82
2022/09/07 08:06:18;;;;;;;4.00;1.55;;;26.90;50.20;;;;;;6273836;28;20087;-83
2022/09/07 08:09:19;;;;;;;7.18;1.77;;;27.00;49.90;;;;;;6261509;28;20113;-81
2022/09/07 08:12:20;;;;;;;5.30;1.23;;;27.10;49.60;;;;;;6257978;28;20041;-81
2022/09/07 08:15:22;;;;;;;7.43;1.75;;;27.30;49.60;;;;;;6264867;28;20045;-82
2022/09/07 08:18:24;;;;;;;2.97;1.58;;;27.40;49.20;;;;;;6272204;28;20036;-83
2022/09/07 08:21:24;;;;;;;9.90;1.50;;;27.50;49.00;;;;;;6271835;28;20045;-82
2022/09/07 08:24:25;;;;;;;9.77;1.60;;;27.60;48.50;;;;;;6273262;28;20034;-82
2022/09/07 08:27:26;;;;;;;6.53;1.50;;;27.70;47.90;;;;;;6262061;28;20034;-82
2022/09/07 08:30:28;;;;;;;4.75;1.33;;;27.80;47.50;;;;;;6272476;28;20045;-82
2022/09/07 08:33:29;;;;;;;5.93;1.75;;;27.90;47.30;;;;;;6285762;28;20124;-82
2022/09/07 08:36:30;;;;;;;4.93;1.85;;;28.00;47.10;;;;;;6288988;28;20048;-83
2022/09/07 08:39:32;;;;;;;2.30;1.40;;;28.10;46.90;;;;;;6269109;28;20389;-83
2022/09/07 08:42:55;;;;;;;9.32;1.50;;;28.30;46.60;;;;;;6274070;28;20041;-83
2022/09/07 08:46:30;;;;;;;6.95;1.48;;;28.40;46.10;;;;;;6290647;28;20037;-82
2022/09/07 08:49:50;;;;;;;8.45;1.50;;;28.50;45.60;;;;;;6271144;28;20040;-82
2022/09/07 08:53:11;;;;;;;3.97;1.20;;;28.50;45.20;;;;;;6273737;28;20354;-83
2022/09/07 08:56:27;;;;;;;14.32;6.18;;;28.50;45.10;;;;;;6270520;28;20036;-82
2022/09/07 08:59:40;;;;;;;9.40;3.35;;;28.60;45.00;;;;;;6292416;28;20032;-82
2022/09/07 09:02:41;;;;;;;9.77;2.17;;;28.60;45.00;;;;;;6292521;28;20473;-81
2022/09/07 09:06:21;;;;;;;7.78;1.70;;;28.70;45.00;;;;;;6258632;28;20025;-82
2022/09/07 09:10:09;;;;;;;4.70;1.58;;;28.80;45.00;;;;;;6274024;28;20054;-83
2022/09/07 09:13:41;;;;;;;5.78;1.58;;;28.90;44.90;;;;;;6177032;28;20217;-83
2022/09/07 09:16:43;;;;;;;3.90;1.45;;;29.00;44.40;;;;;;6187648;28;20110;-82
2022/09/07 09:19:52;;;;;;;5.43;1.08;;;29.00;44.00;;;;;;6173979;28;20348;-81
2022/09/07 09:23:00;;;;;;;3.28;1.45;;;28.90;43.80;;;;;;6195950;28;20064;-82
2022/09/07 09:26:13;;;;;;;4.30;1.42;;;28.90;43.70;;;;;;6203828;28;20088;-81
2022/09/07 09:29:19;;;;;;;3.92;1.70;;;28.90;43.60;;;;;;6186171;28;20065;-81
2022/09/07 09:32:51;;;;;;;2.60;1.38;;;29.00;44.40;;;;;;6196413;28;20110;-81
2022/09/07 09:35:54;;;;;;;4.55;1.50;;;29.10;43.40;;;;;;6188114;28;20759;-81
2022/09/07 09:38:55;;;;;;;6.88;1.27;;;29.20;42.80;;;;;;6158082;28;20046;-82
2022/09/07 09:42:22;;;;;;;3.72;1.30;;;29.20;42.70;;;;;;6166501;28;20134;-81
2022/09/07 09:45:27;;;;;;;1.60;1.10;;;29.20;42.80;;;;;;6259857;28;20033;-83
2022/09/07 09:48:33;;;;;;;1.95;0.90;;;29.30;42.40;;;;;;6264606;28;20029;-82
2022/09/07 09:51:41;;;;;;;2.42;1.00;;;29.30;42.20;;;;;;6242800;28;20197;-82
2022/09/07 09:54:42;;;;;;;;;;;29.40;42.00;;;;;;6245156;28;20045;-82
2022/09/07 09:57:57;;;;;;;2.80;1.23;;;29.50;41.90;;;;;;6238865;28;19921;-82
2022/09/07 10:01:02;;;;;;;5.38;1.33;;;29.60;41.50;;;;;;6246283;28;20045;-82
2022/09/07 10:04:26;;;;;;;3.42;1.10;;;29.70;41.20;;;;;;6245024;28;20041;-82
2022/09/07 10:07:31;;;;;;;3.97;1.17;;;29.70;40.80;;;;;;6245795;28;20486;-84
2022/09/07 10:10:32;;;;;;;5.47;1.05;;;29.80;40.60;;;;;;6246787;28;20108;-82
2022/09/07 10:13:41;;;;;;;1.80;1.05;;;29.90;40.30;;;;;;6267079;28;20423;-81
2022/09/07 10:16:43;;;;;;;4.82;1.10;;;30.00;40.00;;;;;;6257322;28;20071;-82
2022/09/07 10:19:44;;;;;;;2.45;1.00;;;30.00;39.60;;;;;;6244335;28;20041;-83
2022/09/07 10:22:51;;;;;;;3.75;1.25;;;30.10;39.10;;;;;;6255855;28;20064;-83
2022/09/07 10:25:52;;;;;;;3.78;1.10;;;30.20;39.00;;;;;;6254820;28;20106;-82
2022/09/07 10:29:10;;;;;;;4.22;0.98;;;30.30;38.90;;;;;;6263294;28;20041;-83
2022/09/07 10:32:24;;;;;;;4.78;1.10;;;30.40;38.70;;;;;;6261418;28;20029;-83
2022/09/07 10:35:32;;;;;;;3.03;0.68;;;30.60;38.40;;;;;;6290922;28;20178;-81
2022/09/07 10:38:43;;;;;;;1.50;0.75;;;30.80;38.00;;;;;;6257236;28;20053;-82
2022/09/07 10:41:55;;;;;;;2.55;1.10;;;31.00;37.30;;;;;;6239063;28;20064;-82
2022/09/07 10:45:04;;;;;;;2.35;0.93;;;31.30;36.70;;;;;;6244123;28;20041;-83
2022/09/07 10:48:34;;;;;;;3.47;1.25;;;31.60;36.30;;;;;;6256170;28;20030;-82
2022/09/07 10:51:45;;;;;;;4.32;2.15;;;31.90;35.70;;;;;;6254686;28;20393;-81
2022/09/07 10:55:12;;;;;;;1.70;1.20;;;32.30;35.10;;;;;;6268758;28;20040;-83
2022/09/07 10:58:31;;;;;;;4.72;1.52;;;32.60;34.40;;;;;;6247653;28;20111;-83
2022/09/07 11:01:32;;;;;;;1.85;1.38;;;32.90;33.80;;;;;;6252483;28;20045;-81
2022/09/07 11:05:24;;;;;;;3.33;1.23;;;33.20;33.30;;;;;;6257524;28;20091;-82
2022/09/07 11:08:48;;;;;;;3.03;1.40;;;33.50;33.20;;;;;;6259596;28;20037;-82
2022/09/07 11:12:08;;;;;;;6.55;1.40;;;33.70;33.30;;;;;;6273691;28;20064;-83
2022/09/07 11:15:11;;;;;;;3.25;1.38;;;33.90;33.10;;;;;;6257920;28;20098;-83
2022/09/07 11:18:19;;;;;;;5.95;1.40;;;34.00;33.20;;;;;;6275562;28;20096;-83
2022/09/07 11:21:26;;;;;;;9.32;1.30;;;34.00;33.50;;;;;;6277319;28;20056;-81
2022/09/07 11:24:47;;;;;;;9.63;1.98;;;34.00;34.30;;;;;;6291666;28;20033;-81
2022/09/07 11:27:53;;;;;;;3.58;1.10;;;34.00;33.90;;;;;;6288934;28;20029;-82
2022/09/07 11:30:59;;;;;;;2.33;1.27;;;34.20;33.90;;;;;;6270585;28;20055;-82
2022/09/07 11:34:21;;;;;;;3.85;1.50;;;34.30;34.00;;;;;;6268503;28;20128;-82
2022/09/07 11:37:37;;;;;;;6.05;1.58;;;34.40;33.90;;;;;;6289470;28;20488;-83
2022/09/07 11:41:16;;;;;;;7.60;1.45;;;34.60;33.80;;;;;;6271211;28;20141;-81
2022/09/07 11:44:31;;;;;;;7.07;1.33;;;34.80;33.80;;;;;;6267753;28;20364;-82
2022/09/07 11:47:40;;;;;;;9.88;1.48;;;35.00;33.60;;;;;;6257877;28;20041;-82
2022/09/07 11:50:46;;;;;;;9.43;1.88;;;35.30;33.30;;;;;;6265540;28;20469;-83
2022/09/07 11:54:00;;;;;;;3.63;1.30;;;35.60;33.00;;;;;;6256979;28;20374;-83
2022/09/07 11:57:37;;;;;;;7.75;1.40;;;35.90;32.60;;;;;;6251927;28;20133;-83
2022/09/07 12:01:14;;;;;;;5.07;1.50;;;36.20;32.10;;;;;;6200593;28;20045;-82
2022/09/07 12:04:29;;;;;;;8.50;1.42;;;36.40;31.40;;;;;;6201570;28;20714;-82
2022/09/07 12:07:53;;;;;;;9.57;1.65;;;36.30;31.30;;;;;;6188421;28;20494;-82
2022/09/07 12:11:12;;;;;;;10.88;1.60;;;36.10;31.50;;;;;;6199725;28;20136;-82
2022/09/07 12:14:34;;;;;;;15.82;2.60;;;36.20;31.30;;;;;;6211707;28;20097;-83
2022/09/07 12:18:10;;;;;;;9.23;2.05;;;36.20;31.10;;;;;;6196456;28;20065;-82
2022/09/07 12:21:33;;;;;;;4.93;1.50;;;35.70;31.40;;;;;;6237297;28;20386;-83
2022/09/07 12:24:53;;;;;;;6.13;1.58;;;35.20;32.10;;;;;;6232310;28;20041;-83
2022/09/07 12:27:54;;;;;;;11.10;1.48;;;34.70;32.70;;;;;;6212017;28;20076;-82
2022/09/07 12:30:59;;;;;;;5.07;1.42;;;34.30;33.40;;;;;;6210350;28;20057;-82
2022/09/07 12:34:30;;;;;;;14.25;1.50;;;34.00;33.90;;;;;;6237841;28;20470;-84
2022/09/07 12:37:35;;;;;;;12.52;2.15;;;33.80;34.50;;;;;;6275007;28;20066;-82
2022/09/07 12:40:36;;;;;;;14.18;1.95;;;33.60;34.90;;;;;;6279167;28;20037;-83
2022/09/07 12:43:43;;;;;;;9.88;1.52;;;33.50;35.20;;;;;;6252231;28;20431;-83
2022/09/07 12:46:47;;;;;;;3.13;1.80;;;33.40;35.60;;;;;;6248528;28;20127;-82
2022/09/07 12:50:27;;;;;;;6.30;1.60;;;33.30;36.00;;;;;;6267275;28;20313;-83
2022/09/07 12:53:52;;;;;;;13.65;1.88;;;33.20;36.70;;;;;;6293271;28;20040;-83
2022/09/07 12:57:16;;;;;;;11.82;2.10;;;33.00;37.20;;;;;;6247121;28;20029;-82
2022/09/07 13:00:52;;;;;;;10.07;1.95;;;32.80;37.60;;;;;;6237070;28;20113;-83
2022/09/07 13:04:14;;;;;;;8.95;2.22;;;32.50;38.10;;;;;;6265775;28;20504;-83
2022/09/07 13:07:40;;;;;;;10.45;2.00;;;32.40;38.50;;;;;;6283266;28;20067;-82
2022/09/07 13:10:42;;;;;;;9.75;1.80;;;32.20;38.80;;;;;;6277742;28;20035;-82
2022/09/07 13:13:57;;;;;;;14.27;1.95;;;32.10;39.00;;;;;;6272506;28;20036;-83
2022/09/07 13:17:37;;;;;;;7.20;1.75;;;31.90;39.40;;;;;;6274017;28;20041;-82
2022/09/07 13:20:38;;;;;;;9.80;1.92;;;31.80;39.90;;;;;;6277234;28;20039;-84
2022/09/07 13:23:44;;;;;;;13.73;1.30;;;31.70;40.20;;;;;;6277989;28;20525;-82
2022/09/07 13:27:09;;;;;;;7.55;1.58;;;31.60;40.30;;;;;;6269467;28;20044;-83
2022/09/07 13:30:14;;;;;;;8.98;1.92;;;31.50;40.40;;;;;;6272879;28;20062;-83
2022/09/07 13:33:24;;;;;;;7.53;1.67;;;31.50;40.60;;;;;;6264307;28;20131;-83
2022/09/07 13:36:30;;;;;;;8.80;1.60;;;31.40;41.00;;;;;;6239466;28;20037;-81
2022/09/07 13:39:39;;;;;;;9.35;2.10;;;31.30;41.40;;;;;;6261463;28;20049;-83
2022/09/07 13:42:43;;;;;;;6.13;1.52;;;31.20;42.00;;;;;;6266760;28;20343;-83
2022/09/07 13:45:54;;;;;;;8.15;2.38;;;31.10;42.30;;;;;;6248767;28;20155;-83
2022/09/07 13:49:11;;;;;;;12.75;2.05;;;31.00;42.70;;;;;;6277061;28;20080;-81
2022/09/07 13:52:51;;;;;;;15.10;2.17;;;31.00;42.90;;;;;;6263557;28;20041;-82
2022/09/07 13:56:15;;;;;;;10.13;1.75;;;30.90;43.00;;;;;;6276557;28;20111;-82
2022/09/07 13:59:21;;;;;;;7.15;1.67;;;30.90;43.00;;;;;;6272514;28;20063;-81
2022/09/07 14:02:33;;;;;;;5.45;1.80;;;30.80;42.80;;;;;;6276746;28;20033;-81
2022/09/07 14:05:36;;;;;;;9.93;2.40;;;30.80;42.90;;;;;;6262567;28;20097;-82
2022/09/07 14:08:36;;;;;;;12.57;2.20;;;30.90;42.90;;;;;;6286448;28;20023;-82
2022/09/07 14:11:45;;;;;;;9.75;1.85;;;31.00;42.80;;;;;;6269859;28;20029;-83
2022/09/07 14:15:06;;;;;;;5.03;1.88;;;31.10;42.80;;;;;;6287504;28;20040;-81
2022/09/07 14:18:11;;;;;;;15.02;1.98;;;31.30;42.80;;;;;;6267810;28;20048;-83
2022/09/07 14:21:17;;;;;;;6.32;1.58;;;31.30;42.80;;;;;;6257945;28;20037;-81
2022/09/07 14:24:48;;;;;;;4.32;1.88;;;31.30;42.80;;;;;;6238727;28;20053;-81
2022/09/07 14:27:50;;;;;;;18.70;2.22;;;31.30;43.00;;;;;;6265520;28;20040;-81
2022/09/07 14:30:52;;;;;;;12.32;2.30;;;31.30;43.20;;;;;;6291746;28;20042;-82
2022/09/07 14:33:56;;;;;;;8.45;1.80;;;31.10;43.50;;;;;;6266544;28;20428;-82
2022/09/07 14:37:01;;;;;;;16.02;2.20;;;31.10;44.00;;;;;;6283972;28;20072;-81
2022/09/07 14:40:03;;;;;;;8.75;2.30;;;30.90;44.40;;;;;;6274991;28;20040;-81
2022/09/07 14:43:31;;;;;;;6.78;1.98;;;30.80;44.70;;;;;;6264145;28;20515;-82
2022/09/07 14:46:33;;;;;;;8.20;1.98;;;30.60;45.00;;;;;;6274329;28;20469;-82
2022/09/07 14:49:34;;;;;;;13.98;2.17;;;30.60;45.30;;;;;;6255267;28;20177;-82
2022/09/07 14:52:40;;;;;;;9.93;2.10;;;30.50;45.40;;;;;;6266648;28;20049;-82
2022/09/07 14:55:44;;;;;;;12.52;2.00;;;30.40;45.80;;;;;;6250734;28;20066;-81
2022/09/07 14:58:47;;;;;;;10.30;2.00;;;30.30;46.10;;;;;;6240295;28;20037;-81
2022/09/07 15:01:47;;;;;;;8.45;1.65;;;30.20;46.70;;;;;;6270029;28;20036;-82
2022/09/07 15:05:08;;;;;;;13.98;2.53;;;30.10;47.20;;;;;;6271054;28;20045;-81
2022/09/07 15:08:19;;;;;;;12.50;1.85;;;30.00;47.30;;;;;;6273697;28;20054;-81
2022/09/07 15:11:26;;;;;;;21.05;1.90;;;29.90;47.50;;;;;;6263720;28;20038;-81
2022/09/07 15:14:30;;;;;;;12.93;2.25;;;30.00;47.80;;;;;;6250312;28;20044;-84
2022/09/07 15:17:31;;;;;;;11.35;3.10;;;30.00;47.90;;;;;;6276319;28;20528;-82
2022/09/07 15:20:43;;;;;;;5.13;1.70;;;30.10;47.70;;;;;;6295119;28;20052;-83
2022/09/07 15:23:48;;;;;;;9.57;2.03;;;30.10;47.60;;;;;;6272908;28;20488;-83
2022/09/07 15:26:53;;;;;;;6.68;2.58;;;30.10;47.40;;;;;;6270539;28;20112;-81
2022/09/07 15:29:54;;;;;;;12.80;1.80;;;30.20;47.50;;;;;;6251951;28;20130;-81
2022/09/07 15:32:55;;;;;;;18.92;2.50;;;30.20;47.50;;;;;;6249517;28;20064;-82
2022/09/07 15:35:56;;;;;;;7.28;1.75;;;30.20;47.50;;;;;;6268967;28;20052;-82
2022/09/07 15:38:57;;;;;;;6.30;1.98;;;30.20;47.50;;;;;;6260484;28;20047;-82
2022/09/07 15:41:59;;;;;;;8.95;2.47;;;30.10;47.70;;;;;;6261456;28;20032;-82
2022/09/07 15:45:03;;;;;;;13.32;2.65;;;30.10;48.00;;;;;;6262744;28;20450;-81
2022/09/07 15:48:04;;;;;;;12.48;2.25;;;30.00;48.20;;;;;;6274678;28;20065;-81
2022/09/07 15:51:06;;;;;;;14.23;2.78;;;29.90;48.40;;;;;;6257164;28;20033;-83
2022/09/07 15:54:08;;;;;;;9.57;1.63;;;29.80;48.60;;;;;;6254373;28;20108;-82
2022/09/07 15:57:09;;;;;;;4.68;1.65;;;29.70;48.70;;;;;;6236086;28;20029;-82
2022/09/07 16:00:10;;;;;;;7.22;1.95;;;29.60;48.80;;;;;;6271207;28;20507;-82
2022/09/07 16:03:14;;;;;;;7.53;1.80;;;29.50;49.10;;;;;;6256689;28;20898;-82
2022/09/07 16:06:15;;;;;;;10.18;2.28;;;29.40;49.20;;;;;;6265978;28;20064;-81
2022/09/07 16:09:16;;;;;;;6.28;2.55;;;29.40;49.20;;;;;;6268328;28;20034;-82
2022/09/07 16:12:18;;;;;;;4.88;2.30;;;29.40;49.20;;;;;;6257128;28;20092;-81
2022/09/07 16:15:20;;;;;;;10.90;2.00;;;29.30;49.00;;;;;;6253945;28;20033;-82
2022/09/07 16:18:21;;;;;;;8.75;2.28;;;29.30;49.10;;;;;;6250355;28;20033;-82